sensor_id;sensor_type;location;lat;lon;timestamp;temperature;humidity
41220;DHT22;26951;47.338;9.196;2023-07-20T00:00:36;19.60;48.70
41220;DHT22;26951;47.338;9.196;2023-07-20T00:03:20;19.60;49.30
41220;DHT22;26951;47.338;9.196;2023-07-20T00:06:09;19.50;49.70
41220;DHT22;26951;47.338;9.196;2023-07-20T00:08:56;19.50;49.50
41220;DHT22;26951;47.338;9.196;2023-07-20T00:11:47;19.40;48.00
41220;DHT22;26951;47.338;9.196;2023-07-20T00:14:31;19.30;47.50
41220;DHT22;26951;47.338;9.196;2023-07-20T00:17:16;19.30;47.60
41220;DHT22;26951;47.338;9.196;2023-07-20T00:20:00;19.30;48.90
41220;DHT22;26951;47.338;9.196;2023-07-20T00:22:44;19.30;49.30
41220;DHT22;26951;47.338;9.196;2023-07-20T00:25:28;19.20;49.30
41220;DHT22;26951;47.338;9.196;2023-07-20T00:28:12;19.20;49.90
41220;DHT22;26951;47.338;9.196;2023-07-20T00:30:59;19.10;50.00
41220;DHT22;26951;47.338;9.196;2023-07-20T00:33:44;19.20;50.30
41220;DHT22;26951;47.338;9.196;2023-07-20T00:36:28;19.20;50.70
41220;DHT22;26951;47.338;9.196;2023-07-20T00:39:12;19.20;50.60
41220;DHT22;26951;47.338;9.196;2023-07-20T00:41:56;19.20;50.50
41220;DHT22;26951;47.338;9.196;2023-07-20T00:44:40;19.10;49.90
41220;DHT22;26951;47.338;9.196;2023-07-20T00:47:24;19.10;49.20
41220;DHT22;26951;47.338;9.196;2023-07-20T00:50:09;19.00;49.00
41220;DHT22;26951;47.338;9.196;2023-07-20T00:52:54;19.00;49.40
41220;DHT22;26951;47.338;9.196;2023-07-20T00:55:39;19.10;48.80
41220;DHT22;26951;47.338;9.196;2023-07-20T00:58:24;19.00;47.70
41220;DHT22;26951;47.338;9.196;2023-07-20T01:04:49;19.00;46.40
41220;DHT22;26951;47.338;9.196;2023-07-20T01:07:36;19.00;45.40
41220;DHT22;26951;47.338;9.196;2023-07-20T01:10:46;19.00;47.10
41220;DHT22;26951;47.338;9.196;2023-07-20T01:13:33;19.00;47.00
41220;DHT22;26951;47.338;9.196;2023-07-20T01:16:17;19.00;47.20
41220;DHT22;26951;47.338;9.196;2023-07-20T01:19:02;19.00;46.60
41220;DHT22;26951;47.338;9.196;2023-07-20T01:25:28;19.00;45.50
41220;DHT22;26951;47.338;9.196;2023-07-20T01:28:49;18.90;45.10
41220;DHT22;26951;47.338;9.196;2023-07-20T01:31:39;18.90;45.70
41220;DHT22;26951;47.338;9.196;2023-07-20T01:34:26;18.90;44.70
41220;DHT22;26951;47.338;9.196;2023-07-20T01:37:11;18.90;45.30
41220;DHT22;26951;47.338;9.196;2023-07-20T01:39:56;18.90;45.10
41220;DHT22;26951;47.338;9.196;2023-07-20T01:42:45;18.80;45.20
41220;DHT22;26951;47.338;9.196;2023-07-20T01:45:30;18.80;46.20
41220;DHT22;26951;47.338;9.196;2023-07-20T01:48:15;18.80;45.80
41220;DHT22;26951;47.338;9.196;2023-07-20T01:50:59;18.80;45.70
41220;DHT22;26951;47.338;9.196;2023-07-20T01:53:43;18.80;46.30
41220;DHT22;26951;47.338;9.196;2023-07-20T01:56:28;18.80;46.60
41220;DHT22;26951;47.338;9.196;2023-07-20T01:59:13;18.80;46.00
41220;DHT22;26951;47.338;9.196;2023-07-20T02:01:57;18.80;46.80
41220;DHT22;26951;47.338;9.196;2023-07-20T02:04:41;18.80;47.40
41220;DHT22;26951;47.338;9.196;2023-07-20T02:07:25;18.80;46.00
41220;DHT22;26951;47.338;9.196;2023-07-20T02:10:10;18.80;45.90
41220;DHT22;26951;47.338;9.196;2023-07-20T02:12:54;18.80;44.60
41220;DHT22;26951;47.338;9.196;2023-07-20T02:15:38;18.80;44.40
41220;DHT22;26951;47.338;9.196;2023-07-20T02:18:23;18.80;44.90
41220;DHT22;26951;47.338;9.196;2023-07-20T02:21:07;18.80;44.50
41220;DHT22;26951;47.338;9.196;2023-07-20T02:23:51;18.80;43.90
41220;DHT22;26951;47.338;9.196;2023-07-20T02:26:35;18.70;43.40
41220;DHT22;26951;47.338;9.196;2023-07-20T02:29:19;18.70;43.50
41220;DHT22;26951;47.338;9.196;2023-07-20T02:32:03;18.60;43.50
41220;DHT22;26951;47.338;9.196;2023-07-20T02:34:48;18.60;43.40
41220;DHT22;26951;47.338;9.196;2023-07-20T02:37:32;18.60;43.50
41220;DHT22;26951;47.338;9.196;2023-07-20T02:40:16;18.60;43.60
41220;DHT22;26951;47.338;9.196;2023-07-20T02:43:00;18.50;43.20
41220;DHT22;26951;47.338;9.196;2023-07-20T02:45:45;18.50;42.90
41220;DHT22;26951;47.338;9.196;2023-07-20T02:48:29;18.50;42.80
41220;DHT22;26951;47.338;9.196;2023-07-20T02:51:13;18.40;43.10
41220;DHT22;26951;47.338;9.196;2023-07-20T02:53:58;18.40;43.20
41220;DHT22;26951;47.338;9.196;2023-07-20T02:56:43;18.40;44.50
41220;DHT22;26951;47.338;9.196;2023-07-20T02:59:27;18.40;45.30
41220;DHT22;26951;47.338;9.196;2023-07-20T03:02:11;18.40;45.30
41220;DHT22;26951;47.338;9.196;2023-07-20T03:04:55;18.30;44.80
41220;DHT22;26951;47.338;9.196;2023-07-20T03:07:42;18.30;45.30
41220;DHT22;26951;47.338;9.196;2023-07-20T03:10:27;18.30;45.20
41220;DHT22;26951;47.338;9.196;2023-07-20T03:13:11;18.30;46.80
41220;DHT22;26951;47.338;9.196;2023-07-20T03:15:57;18.20;47.40
41220;DHT22;26951;47.338;9.196;2023-07-20T03:18:41;18.20;47.70
41220;DHT22;26951;47.338;9.196;2023-07-20T03:21:26;18.20;48.20
41220;DHT22;26951;47.338;9.196;2023-07-20T03:24:10;18.20;48.40
41220;DHT22;26951;47.338;9.196;2023-07-20T03:26:54;18.20;48.80
41220;DHT22;26951;47.338;9.196;2023-07-20T03:29:38;18.20;49.00
41220;DHT22;26951;47.338;9.196;2023-07-20T03:32:23;18.20;49.70
41220;DHT22;26951;47.338;9.196;2023-07-20T03:35:07;18.10;49.90
41220;DHT22;26951;47.338;9.196;2023-07-20T03:37:51;18.10;48.40
41220;DHT22;26951;47.338;9.196;2023-07-20T03:40:36;18.10;48.20
41220;DHT22;26951;47.338;9.196;2023-07-20T03:43:21;18.00;48.30
41220;DHT22;26951;47.338;9.196;2023-07-20T03:46:06;18.00;49.30
41220;DHT22;26951;47.338;9.196;2023-07-20T03:48:51;17.90;48.70
41220;DHT22;26951;47.338;9.196;2023-07-20T03:51:35;17.80;47.90
41220;DHT22;26951;47.338;9.196;2023-07-20T03:54:19;17.80;48.40
41220;DHT22;26951;47.338;9.196;2023-07-20T03:57:04;17.80;49.10
41220;DHT22;26951;47.338;9.196;2023-07-20T03:59:48;17.80;51.30
41220;DHT22;26951;47.338;9.196;2023-07-20T04:02:32;17.80;51.40
41220;DHT22;26951;47.338;9.196;2023-07-20T04:05:16;17.80;51.70
41220;DHT22;26951;47.338;9.196;2023-07-20T04:08:01;17.80;51.30
41220;DHT22;26951;47.338;9.196;2023-07-20T04:10:45;17.70;50.40
41220;DHT22;26951;47.338;9.196;2023-07-20T04:13:30;17.70;50.20
41220;DHT22;26951;47.338;9.196;2023-07-20T04:16:17;17.70;50.00
41220;DHT22;26951;47.338;9.196;2023-07-20T04:19:01;17.70;50.20
41220;DHT22;26951;47.338;9.196;2023-07-20T04:21:45;17.70;51.10
41220;DHT22;26951;47.338;9.196;2023-07-20T04:24:30;17.70;52.60
41220;DHT22;26951;47.338;9.196;2023-07-20T04:27:14;17.70;53.00
41220;DHT22;26951;47.338;9.196;2023-07-20T04:29:58;17.70;52.60
41220;DHT22;26951;47.338;9.196;2023-07-20T04:32:46;17.70;52.40
41220;DHT22;26951;47.338;9.196;2023-07-20T04:35:48;17.70;52.90
41220;DHT22;26951;47.338;9.196;2023-07-20T04:38:33;17.70;53.30
41220;DHT22;26951;47.338;9.196;2023-07-20T04:41:17;17.70;53.60
41220;DHT22;26951;47.338;9.196;2023-07-20T04:44:02;17.70;53.20
41220;DHT22;26951;47.338;9.196;2023-07-20T04:46:46;17.70;53.20
41220;DHT22;26951;47.338;9.196;2023-07-20T04:49:30;17.70;54.10
41220;DHT22;26951;47.338;9.196;2023-07-20T04:52:15;17.70;53.10
41220;DHT22;26951;47.338;9.196;2023-07-20T04:54:59;17.70;53.00
41220;DHT22;26951;47.338;9.196;2023-07-20T04:57:43;17.70;53.20
41220;DHT22;26951;47.338;9.196;2023-07-20T05:00:27;17.70;52.90
41220;DHT22;26951;47.338;9.196;2023-07-20T05:03:11;17.70;52.00
41220;DHT22;26951;47.338;9.196;2023-07-20T05:05:55;17.70;50.50
41220;DHT22;26951;47.338;9.196;2023-07-20T05:08:39;17.70;50.10
41220;DHT22;26951;47.338;9.196;2023-07-20T05:11:23;17.70;51.00
41220;DHT22;26951;47.338;9.196;2023-07-20T05:14:07;17.70;52.10
41220;DHT22;26951;47.338;9.196;2023-07-20T05:16:51;17.70;52.10
41220;DHT22;26951;47.338;9.196;2023-07-20T05:19:35;17.70;50.70
41220;DHT22;26951;47.338;9.196;2023-07-20T05:22:19;17.70;50.60
41220;DHT22;26951;47.338;9.196;2023-07-20T05:25:04;17.80;50.40
41220;DHT22;26951;47.338;9.196;2023-07-20T05:27:48;17.80;50.20
41220;DHT22;26951;47.338;9.196;2023-07-20T05:30:33;17.80;50.90
41220;DHT22;26951;47.338;9.196;2023-07-20T05:33:18;17.90;51.40
41220;DHT22;26951;47.338;9.196;2023-07-20T05:36:02;17.90;50.90
41220;DHT22;26951;47.338;9.196;2023-07-20T05:38:46;18.00;51.00
41220;DHT22;26951;47.338;9.196;2023-07-20T05:41:31;18.00;49.40
41220;DHT22;26951;47.338;9.196;2023-07-20T05:44:15;18.00;49.50
41220;DHT22;26951;47.338;9.196;2023-07-20T05:47:00;18.00;49.60
41220;DHT22;26951;47.338;9.196;2023-07-20T05:49:44;18.00;49.10
41220;DHT22;26951;47.338;9.196;2023-07-20T05:52:28;18.00;48.90
41220;DHT22;26951;47.338;9.196;2023-07-20T05:55:12;18.10;49.00
41220;DHT22;26951;47.338;9.196;2023-07-20T05:57:56;18.00;49.40
41220;DHT22;26951;47.338;9.196;2023-07-20T06:00:40;18.10;48.60
41220;DHT22;26951;47.338;9.196;2023-07-20T06:03:25;18.00;48.40
41220;DHT22;26951;47.338;9.196;2023-07-20T06:06:09;18.00;48.60
41220;DHT22;26951;47.338;9.196;2023-07-20T06:08:55;18.00;49.10
41220;DHT22;26951;47.338;9.196;2023-07-20T06:11:39;18.00;50.30
41220;DHT22;26951;47.338;9.196;2023-07-20T06:14:24;18.10;51.10
41220;DHT22;26951;47.338;9.196;2023-07-20T06:17:08;18.10;50.70
41220;DHT22;26951;47.338;9.196;2023-07-20T06:19:52;18.20;54.90
41220;DHT22;26951;47.338;9.196;2023-07-20T06:22:36;18.50;55.40
41220;DHT22;26951;47.338;9.196;2023-07-20T06:25:20;18.70;56.60
41220;DHT22;26951;47.338;9.196;2023-07-20T06:28:05;19.00;54.40
41220;DHT22;26951;47.338;9.196;2023-07-20T06:30:49;19.20;53.80
41220;DHT22;26951;47.338;9.196;2023-07-20T06:33:34;19.50;52.60
41220;DHT22;26951;47.338;9.196;2023-07-20T06:36:18;19.80;51.70
41220;DHT22;26951;47.338;9.196;2023-07-20T06:39:03;19.90;48.20
41220;DHT22;26951;47.338;9.196;2023-07-20T06:41:47;20.00;46.20
41220;DHT22;26951;47.338;9.196;2023-07-20T06:44:31;20.10;46.50
41220;DHT22;26951;47.338;9.196;2023-07-20T06:47:15;20.30;47.30
41220;DHT22;26951;47.338;9.196;2023-07-20T06:49:59;20.60;49.50
41220;DHT22;26951;47.338;9.196;2023-07-20T06:52:43;20.80;47.00
41220;DHT22;26951;47.338;9.196;2023-07-20T06:55:27;21.00;44.00
41220;DHT22;26951;47.338;9.196;2023-07-20T06:58:11;21.20;44.30
41220;DHT22;26951;47.338;9.196;2023-07-20T07:00:55;21.50;46.70
41220;DHT22;26951;47.338;9.196;2023-07-20T07:03:40;21.80;47.50
41220;DHT22;26951;47.338;9.196;2023-07-20T07:06:24;22.10;45.10
41220;DHT22;26951;47.338;9.196;2023-07-20T07:09:08;22.30;42.00
41220;DHT22;26951;47.338;9.196;2023-07-20T07:11:53;22.50;39.80
41220;DHT22;26951;47.338;9.196;2023-07-20T07:14:37;22.60;39.00
41220;DHT22;26951;47.338;9.196;2023-07-20T07:17:21;22.70;38.50
41220;DHT22;26951;47.338;9.196;2023-07-20T07:20:05;22.70;38.30
41220;DHT22;26951;47.338;9.196;2023-07-20T07:22:51;22.70;39.00
41220;DHT22;26951;47.338;9.196;2023-07-20T07:25:36;22.60;38.50
41220;DHT22;26951;47.338;9.196;2023-07-20T07:28:20;22.60;39.00
41220;DHT22;26951;47.338;9.196;2023-07-20T07:31:05;22.70;43.10
41220;DHT22;26951;47.338;9.196;2023-07-20T07:33:49;22.90;43.10
41220;DHT22;26951;47.338;9.196;2023-07-20T07:36:34;23.30;42.30
41220;DHT22;26951;47.338;9.196;2023-07-20T07:39:18;23.70;44.50
41220;DHT22;26951;47.338;9.196;2023-07-20T07:42:03;24.20;40.30
41220;DHT22;26951;47.338;9.196;2023-07-20T07:44:47;24.50;38.60
41220;DHT22;26951;47.338;9.196;2023-07-20T07:47:31;24.70;37.90
41220;DHT22;26951;47.338;9.196;2023-07-20T07:50:15;24.90;36.50
41220;DHT22;26951;47.338;9.196;2023-07-20T07:52:59;25.20;33.30
41220;DHT22;26951;47.338;9.196;2023-07-20T07:55:44;25.50;37.40
41220;DHT22;26951;47.338;9.196;2023-07-20T07:58:28;25.80;34.00
41220;DHT22;26951;47.338;9.196;2023-07-20T08:01:12;25.80;34.20
41220;DHT22;26951;47.338;9.196;2023-07-20T08:03:56;25.90;33.20
41220;DHT22;26951;47.338;9.196;2023-07-20T08:06:41;25.80;32.40
41220;DHT22;26951;47.338;9.196;2023-07-20T08:09:25;25.90;31.50
41220;DHT22;26951;47.338;9.196;2023-07-20T08:12:09;25.80;32.40
41220;DHT22;26951;47.338;9.196;2023-07-20T08:14:53;26.00;33.60
41220;DHT22;26951;47.338;9.196;2023-07-20T08:17:37;26.20;33.20
41220;DHT22;26951;47.338;9.196;2023-07-20T08:20:21;26.50;32.20
41220;DHT22;26951;47.338;9.196;2023-07-20T08:23:10;26.80;31.60
41220;DHT22;26951;47.338;9.196;2023-07-20T08:25:54;27.10;31.40
41220;DHT22;26951;47.338;9.196;2023-07-20T08:28:38;27.30;28.30
41220;DHT22;26951;47.338;9.196;2023-07-20T08:31:22;27.40;32.00
41220;DHT22;26951;47.338;9.196;2023-07-20T08:34:07;27.60;32.00
41220;DHT22;26951;47.338;9.196;2023-07-20T08:36:51;27.70;29.70
41220;DHT22;26951;47.338;9.196;2023-07-20T08:39:35;27.70;29.10
41220;DHT22;26951;47.338;9.196;2023-07-20T08:42:20;27.70;30.00
41220;DHT22;26951;47.338;9.196;2023-07-20T08:45:06;27.80;30.00
41220;DHT22;26951;47.338;9.196;2023-07-20T08:47:52;27.80;29.50
41220;DHT22;26951;47.338;9.196;2023-07-20T08:50:38;27.80;28.30
41220;DHT22;26951;47.338;9.196;2023-07-20T08:53:22;27.50;28.00
41220;DHT22;26951;47.338;9.196;2023-07-20T08:56:08;27.40;29.60
41220;DHT22;26951;47.338;9.196;2023-07-20T08:58:55;27.40;28.10
41220;DHT22;26951;47.338;9.196;2023-07-20T09:01:40;27.40;30.20
41220;DHT22;26951;47.338;9.196;2023-07-20T09:04:24;27.40;30.30
41220;DHT22;26951;47.338;9.196;2023-07-20T09:07:09;27.30;29.40
41220;DHT22;26951;47.338;9.196;2023-07-20T09:09:57;27.00;29.90
41220;DHT22;26951;47.338;9.196;2023-07-20T09:12:43;26.60;29.40
41220;DHT22;26951;47.338;9.196;2023-07-20T09:15:30;26.20;30.70
41220;DHT22;26951;47.338;9.196;2023-07-20T09:18:24;25.90;29.60
41220;DHT22;26951;47.338;9.196;2023-07-20T09:21:08;25.60;29.90
41220;DHT22;26951;47.338;9.196;2023-07-20T09:23:56;25.70;31.70
41220;DHT22;26951;47.338;9.196;2023-07-20T09:26:42;25.90;31.70
41220;DHT22;26951;47.338;9.196;2023-07-20T09:29:29;25.90;30.30
41220;DHT22;26951;47.338;9.196;2023-07-20T09:32:15;26.10;32.30
41220;DHT22;26951;47.338;9.196;2023-07-20T09:35:01;25.90;31.60
41220;DHT22;26951;47.338;9.196;2023-07-20T09:37:58;25.70;30.50
41220;DHT22;26951;47.338;9.196;2023-07-20T09:40:42;25.70;30.50
41220;DHT22;26951;47.338;9.196;2023-07-20T09:43:28;25.60;33.30
41220;DHT22;26951;47.338;9.196;2023-07-20T09:46:14;25.50;32.20
41220;DHT22;26951;47.338;9.196;2023-07-20T09:49:01;25.40;33.50
41220;DHT22;26951;47.338;9.196;2023-07-20T09:51:46;25.40;31.90
41220;DHT22;26951;47.338;9.196;2023-07-20T09:54:30;25.40;33.20
41220;DHT22;26951;47.338;9.196;2023-07-20T09:57:15;25.50;34.70
41220;DHT22;26951;47.338;9.196;2023-07-20T10:00:00;25.70;34.40
41220;DHT22;26951;47.338;9.196;2023-07-20T10:02:46;25.70;32.60
41220;DHT22;26951;47.338;9.196;2023-07-20T10:05:33;25.60;33.30
41220;DHT22;26951;47.338;9.196;2023-07-20T10:08:24;25.70;31.60
41220;DHT22;26951;47.338;9.196;2023-07-20T10:11:10;25.80;35.00
41220;DHT22;26951;47.338;9.196;2023-07-20T10:13:59;26.00;35.50
41220;DHT22;26951;47.338;9.196;2023-07-20T10:16:50;26.10;33.40
41220;DHT22;26951;47.338;9.196;2023-07-20T10:19:47;26.10;31.50
41220;DHT22;26951;47.338;9.196;2023-07-20T10:22:36;25.80;30.00
41220;DHT22;26951;47.338;9.196;2023-07-20T10:25:22;25.50;30.40
41220;DHT22;26951;47.338;9.196;2023-07-20T10:28:07;25.20;32.50
41220;DHT22;26951;47.338;9.196;2023-07-20T10:30:51;25.30;34.00
41220;DHT22;26951;47.338;9.196;2023-07-20T10:33:39;25.40;33.40
41220;DHT22;26951;47.338;9.196;2023-07-20T10:36:25;25.50;34.40
41220;DHT22;26951;47.338;9.196;2023-07-20T10:39:22;25.70;33.50
41220;DHT22;26951;47.338;9.196;2023-07-20T10:42:09;25.90;34.30
41220;DHT22;26951;47.338;9.196;2023-07-20T10:44:54;26.00;33.20
41220;DHT22;26951;47.338;9.196;2023-07-20T10:47:45;26.10;34.00
41220;DHT22;26951;47.338;9.196;2023-07-20T10:50:30;26.20;34.60
41220;DHT22;26951;47.338;9.196;2023-07-20T10:53:17;26.30;35.60
41220;DHT22;26951;47.338;9.196;2023-07-20T10:56:09;26.40;33.40
41220;DHT22;26951;47.338;9.196;2023-07-20T10:59:01;26.50;31.20
41220;DHT22;26951;47.338;9.196;2023-07-20T11:02:06;26.40;33.10
41220;DHT22;26951;47.338;9.196;2023-07-20T11:04:50;26.40;34.20
41220;DHT22;26951;47.338;9.196;2023-07-20T11:07:38;26.50;33.00
41220;DHT22;26951;47.338;9.196;2023-07-20T11:10:22;26.50;31.90
41220;DHT22;26951;47.338;9.196;2023-07-20T11:13:20;26.50;31.00
41220;DHT22;26951;47.338;9.196;2023-07-20T11:16:06;26.50;33.00
41220;DHT22;26951;47.338;9.196;2023-07-20T11:18:50;26.60;33.90
41220;DHT22;26951;47.338;9.196;2023-07-20T11:21:38;26.50;31.50
41220;DHT22;26951;47.338;9.196;2023-07-20T11:24:25;26.40;31.40
41220;DHT22;26951;47.338;9.196;2023-07-20T11:27:09;26.20;30.70
41220;DHT22;26951;47.338;9.196;2023-07-20T11:29:53;26.20;31.40
41220;DHT22;26951;47.338;9.196;2023-07-20T11:32:47;26.20;30.00
41220;DHT22;26951;47.338;9.196;2023-07-20T11:35:42;26.00;33.50
41220;DHT22;26951;47.338;9.196;2023-07-20T11:38:26;26.00;35.40
41220;DHT22;26951;47.338;9.196;2023-07-20T11:41:10;25.90;34.10
41220;DHT22;26951;47.338;9.196;2023-07-20T11:43:55;26.00;34.50
41220;DHT22;26951;47.338;9.196;2023-07-20T11:46:39;26.10;32.70
41220;DHT22;26951;47.338;9.196;2023-07-20T11:49:23;26.20;33.90
41220;DHT22;26951;47.338;9.196;2023-07-20T11:52:10;26.30;31.10
41220;DHT22;26951;47.338;9.196;2023-07-20T11:54:55;26.40;32.30
41220;DHT22;26951;47.338;9.196;2023-07-20T11:57:39;26.40;31.80
41220;DHT22;26951;47.338;9.196;2023-07-20T12:00:24;26.40;33.00
41220;DHT22;26951;47.338;9.196;2023-07-20T12:03:09;26.60;34.20
41220;DHT22;26951;47.338;9.196;2023-07-20T12:05:54;26.50;30.70
41220;DHT22;26951;47.338;9.196;2023-07-20T12:08:39;26.50;30.80
41220;DHT22;26951;47.338;9.196;2023-07-20T12:11:35;26.50;32.60
41220;DHT22;26951;47.338;9.196;2023-07-20T12:14:19;26.50;32.70
41220;DHT22;26951;47.338;9.196;2023-07-20T12:17:04;26.40;32.10
41220;DHT22;26951;47.338;9.196;2023-07-20T12:19:48;26.40;32.10
41220;DHT22;26951;47.338;9.196;2023-07-20T12:22:43;26.30;33.50
41220;DHT22;26951;47.338;9.196;2023-07-20T12:28:20;26.50;33.30
41220;DHT22;26951;47.338;9.196;2023-07-20T12:31:04;26.60;32.30
41220;DHT22;26951;47.338;9.196;2023-07-20T12:33:49;26.70;33.90
41220;DHT22;26951;47.338;9.196;2023-07-20T12:36:34;26.80;33.20
41220;DHT22;26951;47.338;9.196;2023-07-20T12:39:18;27.00;34.10
41220;DHT22;26951;47.338;9.196;2023-07-20T12:42:03;27.20;33.10
41220;DHT22;26951;47.338;9.196;2023-07-20T12:44:48;27.30;33.00
41220;DHT22;26951;47.338;9.196;2023-07-20T12:47:33;27.30;32.70
41220;DHT22;26951;47.338;9.196;2023-07-20T12:50:17;27.40;32.30
41220;DHT22;26951;47.338;9.196;2023-07-20T12:53:01;27.30;30.00
41220;DHT22;26951;47.338;9.196;2023-07-20T12:55:48;27.30;31.40
41220;DHT22;26951;47.338;9.196;2023-07-20T12:58:32;27.30;31.20
41220;DHT22;26951;47.338;9.196;2023-07-20T13:01:16;27.30;32.40
41220;DHT22;26951;47.338;9.196;2023-07-20T13:04:00;27.40;32.40
41220;DHT22;26951;47.338;9.196;2023-07-20T13:06:44;27.40;32.70
41220;DHT22;26951;47.338;9.196;2023-07-20T13:09:28;27.60;32.60
41220;DHT22;26951;47.338;9.196;2023-07-20T13:12:13;27.60;30.80
41220;DHT22;26951;47.338;9.196;2023-07-20T13:14:57;27.50;29.10
41220;DHT22;26951;47.338;9.196;2023-07-20T13:17:44;27.40;30.80
41220;DHT22;26951;47.338;9.196;2023-07-20T13:20:30;27.30;31.30
41220;DHT22;26951;47.338;9.196;2023-07-20T13:23:14;27.30;30.20
41220;DHT22;26951;47.338;9.196;2023-07-20T13:25:59;27.30;29.20
41220;DHT22;26951;47.338;9.196;2023-07-20T13:28:43;27.20;30.90
41220;DHT22;26951;47.338;9.196;2023-07-20T13:31:27;27.20;31.00
41220;DHT22;26951;47.338;9.196;2023-07-20T13:34:11;27.20;33.70
41220;DHT22;26951;47.338;9.196;2023-07-20T13:36:55;27.30;32.20
41220;DHT22;26951;47.338;9.196;2023-07-20T13:39:40;27.30;30.00
41220;DHT22;26951;47.338;9.196;2023-07-20T13:42:24;27.30;30.70
41220;DHT22;26951;47.338;9.196;2023-07-20T13:45:08;27.30;32.10
41220;DHT22;26951;47.338;9.196;2023-07-20T13:47:52;27.30;32.00
41220;DHT22;26951;47.338;9.196;2023-07-20T13:50:36;27.20;31.20
41220;DHT22;26951;47.338;9.196;2023-07-20T13:53:21;27.10;29.90
41220;DHT22;26951;47.338;9.196;2023-07-20T13:56:06;26.80;29.50
41220;DHT22;26951;47.338;9.196;2023-07-20T13:58:50;26.70;30.70
41220;DHT22;26951;47.338;9.196;2023-07-20T14:01:35;26.50;32.60
41220;DHT22;26951;47.338;9.196;2023-07-20T14:04:19;26.40;31.20
41220;DHT22;26951;47.338;9.196;2023-07-20T14:07:03;26.30;32.40
41220;DHT22;26951;47.338;9.196;2023-07-20T14:09:47;26.40;34.60
41220;DHT22;26951;47.338;9.196;2023-07-20T14:12:32;26.50;36.00
41220;DHT22;26951;47.338;9.196;2023-07-20T14:15:16;26.60;33.30
41220;DHT22;26951;47.338;9.196;2023-07-20T14:18:01;26.70;31.10
41220;DHT22;26951;47.338;9.196;2023-07-20T14:20:45;26.70;30.80
41220;DHT22;26951;47.338;9.196;2023-07-20T14:23:30;26.70;32.30
41220;DHT22;26951;47.338;9.196;2023-07-20T14:26:15;26.70;30.70
41220;DHT22;26951;47.338;9.196;2023-07-20T14:28:59;26.70;30.00
41220;DHT22;26951;47.338;9.196;2023-07-20T14:31:43;26.60;29.90
41220;DHT22;26951;47.338;9.196;2023-07-20T14:34:28;26.60;30.10
41220;DHT22;26951;47.338;9.196;2023-07-20T14:37:12;26.60;31.70
41220;DHT22;26951;47.338;9.196;2023-07-20T14:39:57;26.70;31.50
41220;DHT22;26951;47.338;9.196;2023-07-20T14:42:41;26.70;30.20
41220;DHT22;26951;47.338;9.196;2023-07-20T14:45:25;26.60;32.70
41220;DHT22;26951;47.338;9.196;2023-07-20T14:48:10;26.60;31.30
41220;DHT22;26951;47.338;9.196;2023-07-20T14:50:54;26.50;29.80
41220;DHT22;26951;47.338;9.196;2023-07-20T14:53:38;26.40;31.40
41220;DHT22;26951;47.338;9.196;2023-07-20T14:56:22;26.40;31.40
41220;DHT22;26951;47.338;9.196;2023-07-20T14:59:06;26.50;30.10
41220;DHT22;26951;47.338;9.196;2023-07-20T15:01:51;26.50;31.10
41220;DHT22;26951;47.338;9.196;2023-07-20T15:04:35;26.60;32.30
41220;DHT22;26951;47.338;9.196;2023-07-20T15:07:20;26.60;33.20
41220;DHT22;26951;47.338;9.196;2023-07-20T15:10:08;26.70;34.00
41220;DHT22;26951;47.338;9.196;2023-07-20T15:12:53;26.80;33.00
41220;DHT22;26951;47.338;9.196;2023-07-20T15:15:37;26.60;30.30
41220;DHT22;26951;47.338;9.196;2023-07-20T15:18:21;26.60;31.40
41220;DHT22;26951;47.338;9.196;2023-07-20T15:21:05;26.60;31.00
41220;DHT22;26951;47.338;9.196;2023-07-20T15:23:49;26.60;30.60
41220;DHT22;26951;47.338;9.196;2023-07-20T15:26:34;26.50;30.20
41220;DHT22;26951;47.338;9.196;2023-07-20T15:29:19;26.30;30.40
41220;DHT22;26951;47.338;9.196;2023-07-20T15:32:04;26.10;31.00
41220;DHT22;26951;47.338;9.196;2023-07-20T15:34:50;26.00;30.40
41220;DHT22;26951;47.338;9.196;2023-07-20T15:37:34;25.90;30.90
41220;DHT22;26951;47.338;9.196;2023-07-20T15:40:19;25.90;30.70
41220;DHT22;26951;47.338;9.196;2023-07-20T15:43:03;25.90;30.10
41220;DHT22;26951;47.338;9.196;2023-07-20T15:45:48;25.80;30.80
41220;DHT22;26951;47.338;9.196;2023-07-20T15:48:35;25.80;31.70
41220;DHT22;26951;47.338;9.196;2023-07-20T15:51:19;25.80;31.90
41220;DHT22;26951;47.338;9.196;2023-07-20T15:54:04;25.60;30.40
41220;DHT22;26951;47.338;9.196;2023-07-20T15:56:53;25.40;31.40
41220;DHT22;26951;47.338;9.196;2023-07-20T15:59:38;25.20;31.80
41220;DHT22;26951;47.338;9.196;2023-07-20T16:02:22;25.00;31.40
41220;DHT22;26951;47.338;9.196;2023-07-20T16:05:07;24.90;31.50
41220;DHT22;26951;47.338;9.196;2023-07-20T16:07:51;24.90;30.70
41220;DHT22;26951;47.338;9.196;2023-07-20T16:10:35;24.90;32.60
41220;DHT22;26951;47.338;9.196;2023-07-20T16:13:19;25.00;32.50
41220;DHT22;26951;47.338;9.196;2023-07-20T16:16:03;25.00;33.30
41220;DHT22;26951;47.338;9.196;2023-07-20T16:18:51;25.10;34.00
41220;DHT22;26951;47.338;9.196;2023-07-20T16:21:37;25.10;33.30
41220;DHT22;26951;47.338;9.196;2023-07-20T16:24:21;25.00;32.80
41220;DHT22;26951;47.338;9.196;2023-07-20T16:27:06;25.00;33.10
41220;DHT22;26951;47.338;9.196;2023-07-20T16:29:50;25.00;33.40
41220;DHT22;26951;47.338;9.196;2023-07-20T16:32:35;25.00;33.70
41220;DHT22;26951;47.338;9.196;2023-07-20T16:35:19;25.10;33.90
41220;DHT22;26951;47.338;9.196;2023-07-20T16:38:03;25.10;33.30
41220;DHT22;26951;47.338;9.196;2023-07-20T16:40:47;25.00;32.50
41220;DHT22;26951;47.338;9.196;2023-07-20T16:43:31;25.00;32.70
41220;DHT22;26951;47.338;9.196;2023-07-20T16:46:15;24.90;32.50
41220;DHT22;26951;47.338;9.196;2023-07-20T16:49:00;24.80;31.70
41220;DHT22;26951;47.338;9.196;2023-07-20T16:51:52;24.70;33.20
41220;DHT22;26951;47.338;9.196;2023-07-20T16:54:39;24.60;33.20
41220;DHT22;26951;47.338;9.196;2023-07-20T16:57:23;24.50;33.60
41220;DHT22;26951;47.338;9.196;2023-07-20T17:00:07;24.40;33.30
41220;DHT22;26951;47.338;9.196;2023-07-20T17:02:54;24.40;33.30
41220;DHT22;26951;47.338;9.196;2023-07-20T17:05:38;24.30;33.50
41220;DHT22;26951;47.338;9.196;2023-07-20T17:08:23;24.20;33.50
41220;DHT22;26951;47.338;9.196;2023-07-20T17:11:07;24.10;33.90
41220;DHT22;26951;47.338;9.196;2023-07-20T17:13:52;24.00;33.40
41220;DHT22;26951;47.338;9.196;2023-07-20T17:16:36;24.00;33.90
41220;DHT22;26951;47.338;9.196;2023-07-20T17:19:20;24.00;35.80
41220;DHT22;26951;47.338;9.196;2023-07-20T17:22:05;23.90;35.70
41220;DHT22;26951;47.338;9.196;2023-07-20T17:24:49;23.90;35.70
41220;DHT22;26951;47.338;9.196;2023-07-20T17:27:33;23.80;36.10
41220;DHT22;26951;47.338;9.196;2023-07-20T17:30:18;23.70;36.10
41220;DHT22;26951;47.338;9.196;2023-07-20T17:33:03;23.60;36.50